sensor_id;sensor_type;location;lat;lon;timestamp;P1;durP1;ratioP1;P2;durP2;ratioP2
52918;SDS011;38793;52.690;6.812;2023-09-07T00:01:05;3.70;;;2.60;;
52918;SDS011;38793;52.690;6.812;2023-09-07T00:03:31;5.82;;;2.83;;
52918;SDS011;38793;52.690;6.812;2023-09-07T00:05:57;4.93;;;2.95;;
52918;SDS011;38793;52.690;6.812;2023-09-07T00:08:23;6.22;;;2.88;;
52918;SDS011;38793;52.690;6.812;2023-09-07T00:10:50;7.80;;;2.95;;
52918;SDS011;38793;52.690;6.812;2023-09-07T00:15:42;3.20;;;2.72;;
52918;SDS011;38793;52.690;6.812;2023-09-07T00:18:07;3.00;;;2.70;;
52918;SDS011;38793;52.690;6.812;2023-09-07T00:22:59;3.75;;;2.58;;
52918;SDS011;38793;52.690;6.812;2023-09-07T00:25:25;5.10;;;2.35;;
52918;SDS011;38793;52.690;6.812;2023-09-07T00:27:51;3.28;;;2.35;;
52918;SDS011;38793;52.690;6.812;2023-09-07T00:30:17;4.75;;;2.05;;
52918;SDS011;38793;52.690;6.812;2023-09-07T00:35:09;6.97;;;2.58;;
52918;SDS011;38793;52.690;6.812;2023-09-07T00:37:35;8.05;;;3.28;;
52918;SDS011;38793;52.690;6.812;2023-09-07T00:40:02;1.95;;;1.55;;
52918;SDS011;38793;52.690;6.812;2023-09-07T00:42:28;3.17;;;1.02;;
52918;SDS011;38793;52.690;6.812;2023-09-07T00:44:54;2.15;;;1.20;;
52918;SDS011;38793;52.690;6.812;2023-09-07T00:47:20;2.75;;;1.48;;
52918;SDS011;38793;52.690;6.812;2023-09-07T00:49:46;2.90;;;1.00;;
52918;SDS011;38793;52.690;6.812;2023-09-07T00:52:12;3.83;;;1.45;;
52918;SDS011;38793;52.690;6.812;2023-09-07T00:59:34;9.30;;;1.27;;
52918;SDS011;38793;52.690;6.812;2023-09-07T01:02:00;2.95;;;1.10;;
52918;SDS011;38793;52.690;6.812;2023-09-07T01:04:25;4.35;;;0.95;;
52918;SDS011;38793;52.690;6.812;2023-09-07T01:06:52;4.10;;;1.75;;
52918;SDS011;38793;52.690;6.812;2023-09-07T01:09:40;4.25;;;1.48;;
52918;SDS011;38793;52.690;6.812;2023-09-07T01:12:07;2.28;;;1.60;;
52918;SDS011;38793;52.690;6.812;2023-09-07T01:14:36;2.72;;;2.22;;
52918;SDS011;38793;52.690;6.812;2023-09-07T01:19:28;3.38;;;0.77;;
52918;SDS011;38793;52.690;6.812;2023-09-07T01:21:54;1.50;;;0.63;;
52918;SDS011;38793;52.690;6.812;2023-09-07T01:24:20;3.80;;;1.20;;
52918;SDS011;38793;52.690;6.812;2023-09-07T01:26:46;1.90;;;1.10;;
52918;SDS011;38793;52.690;6.812;2023-09-07T01:29:14;1.85;;;1.00;;
52918;SDS011;38793;52.690;6.812;2023-09-07T01:31:42;5.45;;;1.80;;
52918;SDS011;38793;52.690;6.812;2023-09-07T01:34:08;2.45;;;1.10;;
52918;SDS011;38793;52.690;6.812;2023-09-07T01:36:34;1.55;;;1.00;;
52918;SDS011;38793;52.690;6.812;2023-09-07T01:41:25;0.73;;;0.60;;
52918;SDS011;38793;52.690;6.812;2023-09-07T01:43:51;2.13;;;0.80;;
52918;SDS011;38793;52.690;6.812;2023-09-07T01:46:17;5.20;;;1.23;;
52918;SDS011;38793;52.690;6.812;2023-09-07T01:48:43;0.98;;;0.88;;
52918;SDS011;38793;52.690;6.812;2023-09-07T01:51:09;3.42;;;1.25;;
52918;SDS011;38793;52.690;6.812;2023-09-07T01:53:34;1.33;;;0.60;;
52918;SDS011;38793;52.690;6.812;2023-09-07T01:56:00;3.25;;;0.65;;
52918;SDS011;38793;52.690;6.812;2023-09-07T01:58:25;2.63;;;0.90;;
52918;SDS011;38793;52.690;6.812;2023-09-07T02:00:57;4.30;;;1.23;;
52918;SDS011;38793;52.690;6.812;2023-09-07T02:03:23;3.08;;;1.20;;
52918;SDS011;38793;52.690;6.812;2023-09-07T02:08:15;2.25;;;0.90;;
52918;SDS011;38793;52.690;6.812;2023-09-07T02:10:40;12.65;;;1.42;;
52918;SDS011;38793;52.690;6.812;2023-09-07T02:13:06;3.38;;;1.45;;
52918;SDS011;38793;52.690;6.812;2023-09-07T02:15:32;2.35;;;1.48;;
52918;SDS011;38793;52.690;6.812;2023-09-07T02:20:23;5.28;;;1.58;;
52918;SDS011;38793;52.690;6.812;2023-09-07T02:22:49;2.40;;;2.20;;
52918;SDS011;38793;52.690;6.812;2023-09-07T02:25:15;4.15;;;1.65;;
52918;SDS011;38793;52.690;6.812;2023-09-07T02:27:41;5.18;;;2.17;;
52918;SDS011;38793;52.690;6.812;2023-09-07T02:30:06;3.22;;;1.70;;
52918;SDS011;38793;52.690;6.812;2023-09-07T02:32:32;4.20;;;2.22;;
52918;SDS011;38793;52.690;6.812;2023-09-07T02:34:58;3.92;;;1.08;;
52918;SDS011;38793;52.690;6.812;2023-09-07T02:37:23;5.53;;;1.85;;
52918;SDS011;38793;52.690;6.812;2023-09-07T02:42:15;1.42;;;1.33;;
52918;SDS011;38793;52.690;6.812;2023-09-07T02:44:40;4.80;;;1.38;;
52918;SDS011;38793;52.690;6.812;2023-09-07T02:47:06;4.10;;;1.33;;
52918;SDS011;38793;52.690;6.812;2023-09-07T02:49:32;11.38;;;1.73;;
52918;SDS011;38793;52.690;6.812;2023-09-07T02:51:57;4.20;;;1.50;;
52918;SDS011;38793;52.690;6.812;2023-09-07T02:54:23;2.33;;;1.98;;
52918;SDS011;38793;52.690;6.812;2023-09-07T02:56:49;5.47;;;2.58;;
52918;SDS011;38793;52.690;6.812;2023-09-07T02:59:14;5.22;;;2.08;;
52918;SDS011;38793;52.690;6.812;2023-09-07T03:01:40;2.55;;;1.85;;
52918;SDS011;38793;52.690;6.812;2023-09-07T03:04:05;4.40;;;2.55;;
52918;SDS011;38793;52.690;6.812;2023-09-07T03:06:32;2.67;;;2.47;;
52918;SDS011;38793;52.690;6.812;2023-09-07T03:08:58;3.08;;;2.55;;
52918;SDS011;38793;52.690;6.812;2023-09-07T03:11:24;4.80;;;2.65;;
52918;SDS011;38793;52.690;6.812;2023-09-07T03:16:15;3.80;;;3.05;;
52918;SDS011;38793;52.690;6.812;2023-09-07T03:18:41;2.83;;;2.63;;
52918;SDS011;38793;52.690;6.812;2023-09-07T03:21:06;4.03;;;3.55;;
52918;SDS011;38793;52.690;6.812;2023-09-07T03:23:32;3.53;;;3.22;;
52918;SDS011;38793;52.690;6.812;2023-09-07T03:25:58;4.97;;;3.72;;
52918;SDS011;38793;52.690;6.812;2023-09-07T03:30:51;5.03;;;3.42;;
52918;SDS011;38793;52.690;6.812;2023-09-07T03:33:17;14.65;;;4.00;;
52918;SDS011;38793;52.690;6.812;2023-09-07T03:35:42;3.95;;;3.65;;
52918;SDS011;38793;52.690;6.812;2023-09-07T03:38:08;5.25;;;3.10;;
52918;SDS011;38793;52.690;6.812;2023-09-07T03:40:33;4.32;;;3.72;;
52918;SDS011;38793;52.690;6.812;2023-09-07T03:42:59;6.75;;;4.43;;
52918;SDS011;38793;52.690;6.812;2023-09-07T03:45:25;3.72;;;3.42;;
52918;SDS011;38793;52.690;6.812;2023-09-07T03:47:50;4.50;;;4.10;;
52918;SDS011;38793;52.690;6.812;2023-09-07T03:50:16;3.85;;;3.53;;
52918;SDS011;38793;52.690;6.812;2023-09-07T03:52:42;3.60;;;3.38;;
52918;SDS011;38793;52.690;6.812;2023-09-07T03:55:07;7.05;;;3.95;;
52918;SDS011;38793;52.690;6.812;2023-09-07T03:57:33;5.68;;;4.80;;
52918;SDS011;38793;52.690;6.812;2023-09-07T03:59:59;5.68;;;4.95;;
52918;SDS011;38793;52.690;6.812;2023-09-07T04:02:25;5.35;;;4.90;;
52918;SDS011;38793;52.690;6.812;2023-09-07T04:04:51;5.10;;;4.63;;
52918;SDS011;38793;52.690;6.812;2023-09-07T04:07:18;7.20;;;4.63;;
52918;SDS011;38793;52.690;6.812;2023-09-07T04:09:44;8.30;;;5.15;;
52918;SDS011;38793;52.690;6.812;2023-09-07T04:12:10;5.22;;;4.55;;
52918;SDS011;38793;52.690;6.812;2023-09-07T04:17:02;5.65;;;5.15;;
52918;SDS011;38793;52.690;6.812;2023-09-07T04:19:28;6.68;;;5.97;;
52918;SDS011;38793;52.690;6.812;2023-09-07T04:21:54;7.43;;;5.72;;
52918;SDS011;38793;52.690;6.812;2023-09-07T04:24:19;5.68;;;5.18;;
52918;SDS011;38793;52.690;6.812;2023-09-07T04:26:45;8.23;;;5.00;;
52918;SDS011;38793;52.690;6.812;2023-09-07T04:29:12;8.05;;;5.75;;
52918;SDS011;38793;52.690;6.812;2023-09-07T04:31:38;8.55;;;5.15;;
52918;SDS011;38793;52.690;6.812;2023-09-07T04:34:03;12.15;;;5.63;;
52918;SDS011;38793;52.690;6.812;2023-09-07T04:36:29;9.32;;;5.32;;
52918;SDS011;38793;52.690;6.812;2023-09-07T04:38:55;6.03;;;5.35;;
52918;SDS011;38793;52.690;6.812;2023-09-07T04:41:20;7.53;;;5.43;;
52918;SDS011;38793;52.690;6.812;2023-09-07T04:43:46;6.25;;;5.32;;
52918;SDS011;38793;52.690;6.812;2023-09-07T04:46:12;6.28;;;5.43;;
52918;SDS011;38793;52.690;6.812;2023-09-07T04:48:38;6.15;;;4.60;;
52918;SDS011;38793;52.690;6.812;2023-09-07T04:51:06;6.68;;;5.32;;
52918;SDS011;38793;52.690;6.812;2023-09-07T04:53:33;6.80;;;5.35;;
52918;SDS011;38793;52.690;6.812;2023-09-07T04:56:00;7.38;;;4.53;;
52918;SDS011;38793;52.690;6.812;2023-09-07T04:58:27;6.63;;;4.53;;
52918;SDS011;38793;52.690;6.812;2023-09-07T05:00:52;6.05;;;4.55;;
52918;SDS011;38793;52.690;6.812;2023-09-07T05:03:18;7.07;;;4.80;;
52918;SDS011;38793;52.690;6.812;2023-09-07T05:05:44;6.50;;;5.90;;
52918;SDS011;38793;52.690;6.812;2023-09-07T05:08:15;7.47;;;4.95;;
52918;SDS011;38793;52.690;6.812;2023-09-07T05:10:41;10.30;;;5.72;;
52918;SDS011;38793;52.690;6.812;2023-09-07T05:13:07;5.63;;;5.13;;
52918;SDS011;38793;52.690;6.812;2023-09-07T05:15:33;9.52;;;6.00;;
52918;SDS011;38793;52.690;6.812;2023-09-07T05:17:58;10.70;;;5.82;;
52918;SDS011;38793;52.690;6.812;2023-09-07T05:20:24;8.70;;;6.15;;
52918;SDS011;38793;52.690;6.812;2023-09-07T05:22:49;5.93;;;5.45;;
52918;SDS011;38793;52.690;6.812;2023-09-07T05:25:15;6.25;;;5.63;;
52918;SDS011;38793;52.690;6.812;2023-09-07T05:27:41;5.75;;;5.15;;
52918;SDS011;38793;52.690;6.812;2023-09-07T05:30:07;7.18;;;5.38;;
52918;SDS011;38793;52.690;6.812;2023-09-07T05:32:33;8.73;;;5.82;;
52918;SDS011;38793;52.690;6.812;2023-09-07T05:34:58;5.80;;;5.22;;
52918;SDS011;38793;52.690;6.812;2023-09-07T05:37:24;8.07;;;5.68;;
52918;SDS011;38793;52.690;6.812;2023-09-07T05:39:49;9.20;;;5.40;;
52918;SDS011;38793;52.690;6.812;2023-09-07T05:42:15;6.22;;;5.57;;
52918;SDS011;38793;52.690;6.812;2023-09-07T05:44:41;6.38;;;5.78;;
52918;SDS011;38793;52.690;6.812;2023-09-07T05:47:07;4.85;;;4.55;;
52918;SDS011;38793;52.690;6.812;2023-09-07T05:49:32;5.55;;;5.03;;
52918;SDS011;38793;52.690;6.812;2023-09-07T05:51:58;6.75;;;6.07;;
52918;SDS011;38793;52.690;6.812;2023-09-07T05:54:24;6.20;;;5.68;;
52918;SDS011;38793;52.690;6.812;2023-09-07T05:56:49;6.13;;;5.63;;
52918;SDS011;38793;52.690;6.812;2023-09-07T05:59:15;11.73;;;5.50;;
52918;SDS011;38793;52.690;6.812;2023-09-07T06:01:40;6.50;;;6.00;;
52918;SDS011;38793;52.690;6.812;2023-09-07T06:04:06;13.40;;;7.18;;
52918;SDS011;38793;52.690;6.812;2023-09-07T06:06:32;13.02;;;6.65;;
52918;SDS011;38793;52.690;6.812;2023-09-07T06:08:58;9.18;;;6.85;;
52918;SDS011;38793;52.690;6.812;2023-09-07T06:11:24;6.93;;;6.30;;
52918;SDS011;38793;52.690;6.812;2023-09-07T06:16:16;8.57;;;7.00;;
52918;SDS011;38793;52.690;6.812;2023-09-07T06:21:07;9.85;;;6.85;;
52918;SDS011;38793;52.690;6.812;2023-09-07T06:23:33;7.60;;;6.57;;
52918;SDS011;38793;52.690;6.812;2023-09-07T06:25:59;7.85;;;7.07;;
52918;SDS011;38793;52.690;6.812;2023-09-07T06:28:25;7.32;;;6.63;;
52918;SDS011;38793;52.690;6.812;2023-09-07T06:30:51;9.40;;;6.88;;
52918;SDS011;38793;52.690;6.812;2023-09-07T06:33:17;7.50;;;6.50;;
52918;SDS011;38793;52.690;6.812;2023-09-07T06:35:43;9.95;;;7.25;;
52918;SDS011;38793;52.690;6.812;2023-09-07T06:38:08;11.63;;;8.93;;
52918;SDS011;38793;52.690;6.812;2023-09-07T06:42:59;11.85;;;9.55;;
52918;SDS011;38793;52.690;6.812;2023-09-07T06:45:25;11.50;;;10.10;;
52918;SDS011;38793;52.690;6.812;2023-09-07T06:47:52;14.57;;;11.15;;
52918;SDS011;38793;52.690;6.812;2023-09-07T06:50:18;14.25;;;11.27;;
52918;SDS011;38793;52.690;6.812;2023-09-07T06:52:44;11.40;;;9.93;;
52918;SDS011;38793;52.690;6.812;2023-09-07T06:55:10;11.23;;;9.23;;
52918;SDS011;38793;52.690;6.812;2023-09-07T07:00:02;10.13;;;8.95;;
52918;SDS011;38793;52.690;6.812;2023-09-07T07:02:30;9.10;;;8.23;;
52918;SDS011;38793;52.690;6.812;2023-09-07T07:07:21;6.45;;;5.85;;
52918;SDS011;38793;52.690;6.812;2023-09-07T07:12:13;7.10;;;6.50;;
52918;SDS011;38793;52.690;6.812;2023-09-07T07:17:04;7.13;;;6.07;;
52918;SDS011;38793;52.690;6.812;2023-09-07T07:21:56;8.30;;;5.30;;
52918;SDS011;38793;52.690;6.812;2023-09-07T07:24:21;10.15;;;6.60;;
52918;SDS011;38793;52.690;6.812;2023-09-07T07:29:13;9.00;;;6.28;;
52918;SDS011;38793;52.690;6.812;2023-09-07T07:34:04;7.90;;;5.78;;
52918;SDS011;38793;52.690;6.812;2023-09-07T07:38:56;6.05;;;5.55;;
52918;SDS011;38793;52.690;6.812;2023-09-07T07:43:47;7.38;;;5.63;;
52918;SDS011;38793;52.690;6.812;2023-09-07T07:48:40;7.55;;;4.82;;
52918;SDS011;38793;52.690;6.812;2023-09-07T07:53:32;7.68;;;4.72;;
52918;SDS011;38793;52.690;6.812;2023-09-07T07:58:23;7.40;;;5.15;;
52918;SDS011;38793;52.690;6.812;2023-09-07T08:03:17;7.88;;;4.55;;
52918;SDS011;38793;52.690;6.812;2023-09-07T08:05:43;5.13;;;4.18;;
52918;SDS011;38793;52.690;6.812;2023-09-07T08:10:35;7.10;;;4.80;;
52918;SDS011;38793;52.690;6.812;2023-09-07T08:13:02;5.63;;;4.20;;
52918;SDS011;38793;52.690;6.812;2023-09-07T08:17:53;8.77;;;4.63;;
52918;SDS011;38793;52.690;6.812;2023-09-07T08:20:20;5.32;;;4.57;;
52918;SDS011;38793;52.690;6.812;2023-09-07T08:25:11;5.03;;;4.13;;
52918;SDS011;38793;52.690;6.812;2023-09-07T08:27:39;5.18;;;4.70;;
52918;SDS011;38793;52.690;6.812;2023-09-07T08:30:12;3.63;;;3.30;;
52918;SDS011;38793;52.690;6.812;2023-09-07T08:32:43;12.25;;;4.60;;
52918;SDS011;38793;52.690;6.812;2023-09-07T08:35:10;7.78;;;5.57;;
52918;SDS011;38793;52.690;6.812;2023-09-07T08:37:41;5.65;;;4.22;;
52918;SDS011;38793;52.690;6.812;2023-09-07T08:42:35;8.35;;;4.97;;
52918;SDS011;38793;52.690;6.812;2023-09-07T08:45:04;6.88;;;3.90;;
52918;SDS011;38793;52.690;6.812;2023-09-07T08:47:33;7.65;;;4.47;;
52918;SDS011;38793;52.690;6.812;2023-09-07T08:50:01;46.72;;;5.90;;
52918;SDS011;38793;52.690;6.812;2023-09-07T08:52:27;8.27;;;4.15;;
52918;SDS011;38793;52.690;6.812;2023-09-07T08:54:53;7.97;;;4.20;;
52918;SDS011;38793;52.690;6.812;2023-09-07T08:57:20;6.03;;;3.08;;
52918;SDS011;38793;52.690;6.812;2023-09-07T08:59:47;15.05;;;3.95;;
52918;SDS011;38793;52.690;6.812;2023-09-07T09:02:14;7.43;;;3.90;;
52918;SDS011;38793;52.690;6.812;2023-09-07T09:04:41;7.30;;;4.57;;
52918;SDS011;38793;52.690;6.812;2023-09-07T09:07:07;9.15;;;4.38;;
52918;SDS011;38793;52.690;6.812;2023-09-07T09:09:33;8.25;;;4.35;;
52918;SDS011;38793;52.690;6.812;2023-09-07T09:12:08;4.88;;;4.10;;
52918;SDS011;38793;52.690;6.812;2023-09-07T09:14:34;9.30;;;4.20;;
52918;SDS011;38793;52.690;6.812;2023-09-07T09:17:00;4.63;;;3.75;;
52918;SDS011;38793;52.690;6.812;2023-09-07T09:19:32;10.13;;;3.45;;
52918;SDS011;38793;52.690;6.812;2023-09-07T09:21:58;4.50;;;4.10;;
52918;SDS011;38793;52.690;6.812;2023-09-07T09:24:24;4.75;;;4.00;;
52918;SDS011;38793;52.690;6.812;2023-09-07T09:26:50;4.22;;;3.88;;
52918;SDS011;38793;52.690;6.812;2023-09-07T09:29:15;8.82;;;3.90;;
52918;SDS011;38793;52.690;6.812;2023-09-07T09:31:41;4.90;;;3.05;;
52918;SDS011;38793;52.690;6.812;2023-09-07T09:34:10;6.55;;;3.38;;
52918;SDS011;38793;52.690;6.812;2023-09-07T09:36:36;3.83;;;3.28;;
52918;SDS011;38793;52.690;6.812;2023-09-07T09:39:02;2.97;;;2.65;;
52918;SDS011;38793;52.690;6.812;2023-09-07T09:41:30;6.28;;;3.40;;
52918;SDS011;38793;52.690;6.812;2023-09-07T09:43:57;5.38;;;3.70;;
52918;SDS011;38793;52.690;6.812;2023-09-07T09:46:24;6.68;;;2.55;;
52918;SDS011;38793;52.690;6.812;2023-09-07T09:48:50;5.88;;;3.13;;
52918;SDS011;38793;52.690;6.812;2023-09-07T09:51:17;7.53;;;2.83;;
52918;SDS011;38793;52.690;6.812;2023-09-07T09:53:43;4.53;;;3.28;;
52918;SDS011;38793;52.690;6.812;2023-09-07T09:56:10;9.93;;;2.88;;
52918;SDS011;38793;52.690;6.812;2023-09-07T09:58:36;6.35;;;2.88;;
52918;SDS011;38793;52.690;6.812;2023-09-07T10:01:02;9.02;;;3.38;;
52918;SDS011;38793;52.690;6.812;2023-09-07T10:06:07;7.85;;;3.40;;
52918;SDS011;38793;52.690;6.812;2023-09-07T10:08:36;10.70;;;3.28;;
52918;SDS011;38793;52.690;6.812;2023-09-07T10:11:06;6.60;;;3.22;;
52918;SDS011;38793;52.690;6.812;2023-09-07T10:13:34;4.50;;;3.40;;
52918;SDS011;38793;52.690;6.812;2023-09-07T10:16:03;4.32;;;3.08;;
52918;SDS011;38793;52.690;6.812;2023-09-07T10:18:38;3.20;;;2.67;;
52918;SDS011;38793;52.690;6.812;2023-09-07T10:21:05;4.50;;;3.67;;
52918;SDS011;38793;52.690;6.812;2023-09-07T10:26:03;5.03;;;2.38;;
52918;SDS011;38793;52.690;6.812;2023-09-07T10:28:29;4.47;;;2.47;;
52918;SDS011;38793;52.690;6.812;2023-09-07T10:31:02;3.97;;;2.70;;
52918;SDS011;38793;52.690;6.812;2023-09-07T10:33:35;7.10;;;3.15;;
52918;SDS011;38793;52.690;6.812;2023-09-07T10:36:04;5.40;;;3.08;;
52918;SDS011;38793;52.690;6.812;2023-09-07T10:38:39;3.33;;;3.03;;
52918;SDS011;38793;52.690;6.812;2023-09-07T10:41:06;3.17;;;2.67;;
52918;SDS011;38793;52.690;6.812;2023-09-07T10:43:32;8.02;;;2.90;;
52918;SDS011;38793;52.690;6.812;2023-09-07T10:45:59;8.48;;;3.25;;
52918;SDS011;38793;52.690;6.812;2023-09-07T10:48:26;5.10;;;2.55;;
52918;SDS011;38793;52.690;6.812;2023-09-07T10:50:54;5.55;;;1.92;;
52918;SDS011;38793;52.690;6.812;2023-09-07T10:53:30;5.30;;;2.92;;
52918;SDS011;38793;52.690;6.812;2023-09-07T10:55:57;6.57;;;2.10;;
52918;SDS011;38793;52.690;6.812;2023-09-07T10:58:30;5.65;;;2.22;;
52918;SDS011;38793;52.690;6.812;2023-09-07T11:00:57;7.88;;;2.40;;
52918;SDS011;38793;52.690;6.812;2023-09-07T11:03:24;2.95;;;2.42;;
52918;SDS011;38793;52.690;6.812;2023-09-07T11:05:51;6.93;;;2.50;;
52918;SDS011;38793;52.690;6.812;2023-09-07T11:08:19;3.20;;;2.60;;
52918;SDS011;38793;52.690;6.812;2023-09-07T11:10:44;5.43;;;2.22;;
52918;SDS011;38793;52.690;6.812;2023-09-07T11:13:10;5.63;;;2.50;;
52918;SDS011;38793;52.690;6.812;2023-09-07T11:15:36;6.40;;;2.22;;
52918;SDS011;38793;52.690;6.812;2023-09-07T11:18:05;7.55;;;2.13;;
52918;SDS011;38793;52.690;6.812;2023-09-07T11:20:35;2.67;;;2.03;;
52918;SDS011;38793;52.690;6.812;2023-09-07T11:23:01;3.28;;;2.47;;
52918;SDS011;38793;52.690;6.812;2023-09-07T11:25:37;4.32;;;2.42;;
52918;SDS011;38793;52.690;6.812;2023-09-07T11:28:04;3.28;;;2.25;;
52918;SDS011;38793;52.690;6.812;2023-09-07T11:30:30;3.30;;;2.72;;
52918;SDS011;38793;52.690;6.812;2023-09-07T11:33:06;10.57;;;3.35;;
52918;SDS011;38793;52.690;6.812;2023-09-07T11:35:33;9.38;;;2.45;;
52918;SDS011;38793;52.690;6.812;2023-09-07T11:38:03;2.70;;;2.00;;
52918;SDS011;38793;52.690;6.812;2023-09-07T11:40:32;5.13;;;2.05;;
52918;SDS011;38793;52.690;6.812;2023-09-07T11:42:58;4.15;;;2.00;;
52918;SDS011;38793;52.690;6.812;2023-09-07T11:45:23;3.83;;;2.55;;
52918;SDS011;38793;52.690;6.812;2023-09-07T11:47:49;6.68;;;2.40;;
52918;SDS011;38793;52.690;6.812;2023-09-07T11:50:16;2.38;;;2.13;;
52918;SDS011;38793;52.690;6.812;2023-09-07T11:52:42;5.03;;;2.58;;
52918;SDS011;38793;52.690;6.812;2023-09-07T11:55:08;3.85;;;2.60;;
52918;SDS011;38793;52.690;6.812;2023-09-07T11:57:35;4.63;;;2.20;;
52918;SDS011;38793;52.690;6.812;2023-09-07T12:00:01;3.88;;;2.13;;
52918;SDS011;38793;52.690;6.812;2023-09-07T12:02:29;4.75;;;2.25;;
52918;SDS011;38793;52.690;6.812;2023-09-07T12:04:54;4.88;;;2.42;;
52918;SDS011;38793;52.690;6.812;2023-09-07T12:07:20;1.92;;;1.83;;
52918;SDS011;38793;52.690;6.812;2023-09-07T12:09:46;3.63;;;1.73;;
52918;SDS011;38793;52.690;6.812;2023-09-07T12:12:13;4.78;;;2.20;;
52918;SDS011;38793;52.690;6.812;2023-09-07T12:14:39;7.10;;;2.20;;
52918;SDS011;38793;52.690;6.812;2023-09-07T12:17:04;3.55;;;2.30;;
52918;SDS011;38793;52.690;6.812;2023-09-07T12:19:30;5.00;;;1.58;;
52918;SDS011;38793;52.690;6.812;2023-09-07T12:21:55;5.32;;;1.88;;
52918;SDS011;38793;52.690;6.812;2023-09-07T12:24:21;2.60;;;2.33;;
52918;SDS011;38793;52.690;6.812;2023-09-07T12:26:47;7.13;;;1.95;;
52918;SDS011;38793;52.690;6.812;2023-09-07T12:29:12;3.65;;;1.55;;
52918;SDS011;38793;52.690;6.812;2023-09-07T12:31:38;2.03;;;1.80;;
52918;SDS011;38793;52.690;6.812;2023-09-07T12:34:04;7.22;;;1.70;;
52918;SDS011;38793;52.690;6.812;2023-09-07T12:36:30;3.15;;;1.83;;
52918;SDS011;38793;52.690;6.812;2023-09-07T12:38:55;7.50;;;2.50;;
52918;SDS011;38793;52.690;6.812;2023-09-07T12:41:26;2.63;;;1.80;;
52918;SDS011;38793;52.690;6.812;2023-09-07T12:43:53;1.77;;;1.67;;
52918;SDS011;38793;52.690;6.812;2023-09-07T12:46:19;3.20;;;2.28;;
52918;SDS011;38793;52.690;6.812;2023-09-07T12:48:44;5.18;;;2.53;;
52918;SDS011;38793;52.690;6.812;2023-09-07T12:51:10;2.45;;;2.00;;
52918;SDS011;38793;52.690;6.812;2023-09-07T12:53:36;2.35;;;1.67;;
52918;SDS011;38793;52.690;6.812;2023-09-07T12:56:01;3.75;;;1.98;;
52918;SDS011;38793;52.690;6.812;2023-09-07T12:58:28;5.70;;;1.52;;
52918;SDS011;38793;52.690;6.812;2023-09-07T13:00:53;6.53;;;1.80;;
52918;SDS011;38793;52.690;6.812;2023-09-07T13:03:19;6.00;;;2.15;;
52918;SDS011;38793;52.690;6.812;2023-09-07T13:05:45;2.50;;;1.55;;
52918;SDS011;38793;52.690;6.812;2023-09-07T13:08:11;4.88;;;1.42;;
52918;SDS011;38793;52.690;6.812;2023-09-07T13:10:37;2.47;;;1.73;;
52918;SDS011;38793;52.690;6.812;2023-09-07T13:13:02;4.88;;;1.85;;
52918;SDS011;38793;52.690;6.812;2023-09-07T13:15:28;3.53;;;2.20;;
52918;SDS011;38793;52.690;6.812;2023-09-07T13:17:54;4.97;;;2.45;;
52918;SDS011;38793;52.690;6.812;2023-09-07T13:20:19;7.38;;;1.80;;
52918;SDS011;38793;52.690;6.812;2023-09-07T13:22:45;2.50;;;1.80;;
52918;SDS011;38793;52.690;6.812;2023-09-07T13:25:13;3.20;;;1.30;;
52918;SDS011;38793;52.690;6.812;2023-09-07T13:27:39;3.35;;;1.70;;
52918;SDS011;38793;52.690;6.812;2023-09-07T13:30:05;3.33;;;1.42;;
52918;SDS011;38793;52.690;6.812;2023-09-07T13:32:33;2.92;;;2.08;;
52918;SDS011;38793;52.690;6.812;2023-09-07T13:35:00;4.57;;;1.73;;
52918;SDS011;38793;52.690;6.812;2023-09-07T13:37:25;2.03;;;1.67;;
52918;SDS011;38793;52.690;6.812;2023-09-07T13:39:51;6.60;;;1.77;;
52918;SDS011;38793;52.690;6.812;2023-09-07T13:42:17;9.70;;;2.03;;
52918;SDS011;38793;52.690;6.812;2023-09-07T13:44:42;2.53;;;1.52;;
52918;SDS011;38793;52.690;6.812;2023-09-07T13:47:10;1.92;;;1.77;;
52918;SDS011;38793;52.690;6.812;2023-09-07T13:49:36;5.15;;;1.70;;
52918;SDS011;38793;52.690;6.812;2023-09-07T13:52:01;5.85;;;1.95;;
52918;SDS011;38793;52.690;6.812;2023-09-07T13:54:28;5.25;;;1.70;;
52918;SDS011;38793;52.690;6.812;2023-09-07T13:56:54;2.83;;;1.52;;
52918;SDS011;38793;52.690;6.812;2023-09-07T13:59:19;5.32;;;1.77;;
52918;SDS011;38793;52.690;6.812;2023-09-07T14:01:45;7.85;;;1.70;;
52918;SDS011;38793;52.690;6.812;2023-09-07T14:04:10;5.15;;;2.05;;
52918;SDS011;38793;52.690;6.812;2023-09-07T14:06:36;4.72;;;1.88;;
52918;SDS011;38793;52.690;6.812;2023-09-07T14:09:02;4.03;;;1.95;;
52918;SDS011;38793;52.690;6.812;2023-09-07T14:11:27;4.30;;;1.33;;
52918;SDS011;38793;52.690;6.812;2023-09-07T14:13:53;2.70;;;1.63;;
52918;SDS011;38793;52.690;6.812;2023-09-07T14:16:19;4.18;;;1.90;;
52918;SDS011;38793;52.690;6.812;2023-09-07T14:18:45;1.88;;;1.60;;
52918;SDS011;38793;52.690;6.812;2023-09-07T14:21:15;2.85;;;1.80;;
52918;SDS011;38793;52.690;6.812;2023-09-07T14:23:41;1.98;;;1.77;;
52918;SDS011;38793;52.690;6.812;2023-09-07T14:26:10;3.47;;;1.92;;
52918;SDS011;38793;52.690;6.812;2023-09-07T14:28:35;1.55;;;1.45;;
52918;SDS011;38793;52.690;6.812;2023-09-07T14:31:03;1.63;;;1.50;;
52918;SDS011;38793;52.690;6.812;2023-09-07T14:33:31;2.63;;;1.63;;
52918;SDS011;38793;52.690;6.812;2023-09-07T14:35:57;3.30;;;1.55;;
52918;SDS011;38793;52.690;6.812;2023-09-07T14:38:23;3.63;;;1.60;;
52918;SDS011;38793;52.690;6.812;2023-09-07T14:40:51;2.22;;;1.58;;
52918;SDS011;38793;52.690;6.812;2023-09-07T14:43:19;4.68;;;1.98;;
52918;SDS011;38793;52.690;6.812;2023-09-07T14:45:46;2.83;;;1.65;;
52918;SDS011;38793;52.690;6.812;2023-09-07T14:48:12;5.18;;;1.88;;
52918;SDS011;38793;52.690;6.812;2023-09-07T14:50:38;5.30;;;1.90;;
52918;SDS011;38793;52.690;6.812;2023-09-07T14:53:03;4.50;;;1.50;;
52918;SDS011;38793;52.690;6.812;2023-09-07T14:55:29;3.78;;;1.52;;
52918;SDS011;38793;52.690;6.812;2023-09-07T14:57:55;2.05;;;1.65;;
52918;SDS011;38793;52.690;6.812;2023-09-07T15:00:20;7.78;;;1.92;;
52918;SDS011;38793;52.690;6.812;2023-09-07T15:02:47;2.10;;;1.60;;
52918;SDS011;38793;52.690;6.812;2023-09-07T15:05:13;4.57;;;1.77;;
52918;SDS011;38793;52.690;6.812;2023-09-07T15:07:38;5.38;;;1.70;;
52918;SDS011;38793;52.690;6.812;2023-09-07T15:10:04;4.80;;;1.80;;
52918;SDS011;38793;52.690;6.812;2023-09-07T15:12:30;3.50;;;1.50;;
52918;SDS011;38793;52.690;6.812;2023-09-07T15:14:55;5.03;;;1.15;;
52918;SDS011;38793;52.690;6.812;2023-09-07T15:17:21;3.95;;;1.83;;
52918;SDS011;38793;52.690;6.812;2023-09-07T15:19:47;4.13;;;1.88;;
52918;SDS011;38793;52.690;6.812;2023-09-07T15:22:12;2.90;;;1.63;;
52918;SDS011;38793;52.690;6.812;2023-09-07T15:24:38;6.15;;;1.40;;
52918;SDS011;38793;52.690;6.812;2023-09-07T15:27:09;5.28;;;1.70;;
52918;SDS011;38793;52.690;6.812;2023-09-07T15:29:35;2.78;;;1.60;;
52918;SDS011;38793;52.690;6.812;2023-09-07T15:32:01;2.97;;;1.98;;
52918;SDS011;38793;52.690;6.812;2023-09-07T15:34:27;5.85;;;1.92;;
52918;SDS011;38793;52.690;6.812;2023-09-07T15:36:52;5.28;;;1.75;;
52918;SDS011;38793;52.690;6.812;2023-09-07T15:39:18;2.20;;;1.92;;
52918;SDS011;38793;52.690;6.812;2023-09-07T15:41:44;4.03;;;1.65;;
52918;SDS011;38793;52.690;6.812;2023-09-07T15:44:09;6.75;;;1.92;;
52918;SDS011;38793;52.690;6.812;2023-09-07T15:46:35;4.60;;;2.08;;
52918;SDS011;38793;52.690;6.812;2023-09-07T15:49:02;5.18;;;1.67;;
52918;SDS011;38793;52.690;6.812;2023-09-07T15:51:28;8.30;;;2.15;;
52918;SDS011;38793;52.690;6.812;2023-09-07T15:53:53;2.92;;;2.00;;
52918;SDS011;38793;52.690;6.812;2023-09-07T15:56:19;5.05;;;2.10;;
52918;SDS011;38793;52.690;6.812;2023-09-07T15:58:45;3.65;;;1.52;;
52918;SDS011;38793;52.690;6.812;2023-09-07T16:01:10;3.90;;;1.67;;
52918;SDS011;38793;52.690;6.812;2023-09-07T16:03:36;4.13;;;2.22;;
52918;SDS011;38793;52.690;6.812;2023-09-07T16:06:01;3.15;;;1.73;;